Time,TemperatureF,DewpointF,PressureIn,WindDirection,WindDirectionDegrees,WindSpeedMPH,WindSpeedGustMPH,Humidity,HourlyPrecipIn,Conditions,Clouds,dailyrainin,SolarRadiationWatts/m^2,SoftwareType,DateUTC
2013-08-24 00:04:00,55.0,53.0,-100.00,West,265,0.0,2.0,93,0.00,,,0.00,0.000000,,2013-08-24 04:04:00,
2013-08-24 00:44:00,53.0,52.0,-100.00,WSW,246,0.0,0.0,95,0.00,,,0.00,0.000000,,2013-08-24 04:44:00,
2013-08-24 00:54:00,53.0,52.0,-100.00,WSW,246,0.0,0.0,95,0.00,,,0.00,0.000000,,2013-08-24 04:54:00,
2013-08-24 01:03:00,53.0,52.0,-100.00,WSW,246,0.0,0.0,95,0.00,,,0.00,0.000000,,2013-08-24 05:03:00,
2013-08-24 01:43:00,52.0,51.0,-100.00,WSW,252,0.0,2.0,97,0.00,,,0.00,0.000000,,2013-08-24 05:43:00,
2013-08-24 01:53:00,52.0,51.0,-100.00,WSW,252,0.0,2.0,97,0.00,,,0.00,0.000000,,2013-08-24 05:53:00,
2013-08-24 02:02:00,52.0,51.0,-100.00,WSW,252,0.0,2.0,97,0.00,,,0.00,0.000000,,2013-08-24 06:02:00,
2013-08-24 02:42:00,50.0,49.0,-100.00,SW,231,0.0,0.0,98,0.00,,,0.00,0.000000,,2013-08-24 06:42:00,
2013-08-24 02:52:00,50.0,49.0,-100.00,SW,231,0.0,0.0,98,0.00,,,0.00,0.000000,,2013-08-24 06:52:00,
2013-08-24 03:02:00,50.0,49.0,-100.00,SW,231,0.0,0.0,98,0.00,,,0.00,0.000000,,2013-08-24 07:02:00,
2013-08-24 03:43:00,49.0,48.0,-100.00,SSW,194,0.0,0.0,98,0.00,,,0.00,0.000000,,2013-08-24 07:43:00,
2013-08-24 03:53:00,49.0,48.0,-100.00,SSW,194,0.0,0.0,98,0.00,,,0.00,0.000000,,2013-08-24 07:53:00,
2013-08-24 04:02:00,49.0,48.0,-100.00,SSW,194,0.0,0.0,98,0.00,,,0.00,0.000000,,2013-08-24 08:02:00,
2013-08-24 04:42:00,48.0,47.0,-100.00,South,185,0.0,0.0,98,0.00,,,0.00,0.000000,,2013-08-24 08:42:00,
2013-08-24 04:52:00,48.0,47.0,-100.00,South,185,0.0,0.0,98,0.00,,,0.00,0.000000,,2013-08-24 08:52:00,
2013-08-24 05:01:00,48.0,47.0,-100.00,South,185,0.0,0.0,98,0.00,,,0.00,0.000000,,2013-08-24 09:01:00,
2013-08-24 05:44:00,47.0,46.0,-100.00,SSW,196,0.0,0.0,98,0.00,,,0.00,0.000000,,2013-08-24 09:44:00,
2013-08-24 05:53:00,47.0,46.0,-100.00,SSW,196,0.0,0.0,98,0.00,,,0.00,0.000000,,2013-08-24 09:53:00,
2013-08-24 06:04:00,47.0,46.0,-100.00,SSW,196,0.0,0.0,98,0.00,,,0.00,0.000000,,2013-08-24 10:04:00,
2013-08-24 06:42:00,46.0,45.0,-100.00,SW,224,0.0,0.0,98,0.00,,,0.00,0.000000,,2013-08-24 10:42:00,
2013-08-24 06:53:00,46.0,45.0,-100.00,SW,224,0.0,0.0,98,0.00,,,0.00,0.000000,,2013-08-24 10:53:00,
2013-08-24 07:02:00,46.0,45.0,-100.00,SW,224,0.0,0.0,98,0.00,,,0.00,0.000000,,2013-08-24 11:02:00,
2013-08-24 07:42:00,46.0,45.0,-100.00,South,180,0.0,0.0,98,0.00,,,0.00,6.000000,,2013-08-24 11:42:00,
2013-08-24 07:52:00,46.0,45.0,-100.00,South,180,0.0,0.0,98,0.00,,,0.00,6.000000,,2013-08-24 11:52:00,
2013-08-24 08:02:00,46.0,45.0,-100.00,South,180,0.0,0.0,98,0.00,,,0.00,6.000000,,2013-08-24 12:02:00,
2013-08-24 08:42:00,47.0,47.0,-100.00,South,183,0.0,0.0,99,0.00,,,0.00,25.000000,,2013-08-24 12:42:00,
2013-08-24 08:52:00,47.0,47.0,-100.00,South,183,0.0,0.0,99,0.00,,,0.00,25.000000,,2013-08-24 12:52:00,
2013-08-24 09:02:00,47.0,47.0,-100.00,South,183,0.0,0.0,99,0.00,,,0.00,25.000000,,2013-08-24 13:02:00,
2013-08-24 09:42:00,52.0,52.0,-100.00,SE,139,0.0,2.0,99,-99.99,,,0.00,75.000000,,2013-08-24 13:42:00,
2013-08-24 09:52:00,52.0,52.0,-100.00,SE,139,0.0,2.0,99,-99.99,,,0.00,75.000000,,2013-08-24 13:52:00,
2013-08-24 10:02:00,52.0,52.0,-100.00,SE,139,0.0,2.0,99,-99.99,,,0.00,75.000000,,2013-08-24 14:02:00,
2013-08-24 10:42:00,65.0,58.0,-100.00,SW,227,2.0,5.0,79,-99.99,,,0.00,554.000000,,2013-08-24 14:42:00,
2013-08-24 10:52:00,65.0,58.0,-100.00,SW,227,2.0,5.0,79,-99.99,,,0.00,554.000000,,2013-08-24 14:52:00,
2013-08-24 11:01:00,65.0,58.0,-100.00,SW,227,2.0,5.0,79,-99.99,,,0.00,554.000000,,2013-08-24 15:01:00,
2013-08-24 11:45:00,71.0,54.0,-100.00,South,189,4.0,9.0,56,0.00,,,0.00,726.000000,,2013-08-24 15:45:00,
2013-08-24 11:54:00,71.0,54.0,-100.00,South,189,4.0,9.0,56,0.00,,,0.00,726.000000,,2013-08-24 15:54:00,
2013-08-24 12:04:00,71.0,54.0,-100.00,South,189,4.0,9.0,56,0.00,,,0.00,726.000000,,2013-08-24 16:04:00,
2013-08-24 12:42:00,74.0,52.0,-100.00,South,185,4.0,8.0,47,0.00,,,-99.99,871.000000,,2013-08-24 16:42:00,
2013-08-24 12:53:00,74.0,52.0,-100.00,South,185,4.0,8.0,47,0.00,,,-99.99,871.000000,,2013-08-24 16:53:00,
2013-08-24 13:02:00,74.0,52.0,-100.00,South,185,4.0,8.0,47,0.00,,,-99.99,871.000000,,2013-08-24 17:02:00,
2013-08-24 13:42:00,75.0,53.0,-100.00,WSW,238,3.0,7.0,47,0.00,,,0.00,991.000000,,2013-08-24 17:42:00,
2013-08-24 13:52:00,75.0,53.0,-100.00,WSW,238,3.0,7.0,47,0.00,,,0.00,991.000000,,2013-08-24 17:52:00,
2013-08-24 14:03:00,75.0,53.0,-100.00,WSW,238,3.0,7.0,47,0.00,,,0.00,991.000000,,2013-08-24 18:03:00,
2013-08-24 14:42:00,78.0,52.0,-100.00,South,177,5.0,9.0,40,0.00,,,0.00,1010.000000,,2013-08-24 18:42:00,
2013-08-24 14:53:00,78.0,52.0,-100.00,South,177,5.0,9.0,40,0.00,,,0.00,1010.000000,,2013-08-24 18:53:00,
2013-08-24 15:01:00,78.0,52.0,-100.00,South,177,5.0,9.0,40,0.00,,,0.00,1010.000000,,2013-08-24 19:01:00,
2013-08-24 15:42:00,80.0,53.0,-100.00,NW,313,3.0,12.0,40,0.00,,,0.00,961.000000,,2013-08-24 19:42:00,
2013-08-24 15:52:00,80.0,53.0,-100.00,NW,313,3.0,12.0,40,0.00,,,0.00,961.000000,,2013-08-24 19:52:00,
2013-08-24 16:02:00,80.0,53.0,-100.00,NW,313,3.0,12.0,40,0.00,,,0.00,961.000000,,2013-08-24 20:02:00,
2013-08-24 16:42:00,80.0,51.0,-100.00,WNW,297,4.0,11.0,37,0.00,,,0.00,845.000000,,2013-08-24 20:42:00,
2013-08-24 16:53:00,80.0,51.0,-100.00,WNW,297,4.0,11.0,37,0.00,,,0.00,845.000000,,2013-08-24 20:53:00,
2013-08-24 17:02:00,80.0,51.0,-100.00,WNW,297,4.0,11.0,37,0.00,,,0.00,845.000000,,2013-08-24 21:02:00,
2013-08-24 17:43:00,80.0,54.0,-100.00,NW,312,3.0,7.0,41,0.00,,,0.00,680.000000,,2013-08-24 21:43:00,
2013-08-24 17:55:00,80.0,54.0,-100.00,NW,312,3.0,7.0,41,0.00,,,0.00,680.000000,,2013-08-24 21:55:00,
2013-08-24 18:04:00,80.0,54.0,-100.00,NW,312,3.0,7.0,41,0.00,,,0.00,680.000000,,2013-08-24 22:04:00,
2013-08-24 18:43:00,78.0,54.0,-100.00,NW,322,3.0,6.0,44,0.00,,,0.00,459.000000,,2013-08-24 22:43:00,
2013-08-24 18:53:00,78.0,54.0,-100.00,NW,322,3.0,6.0,44,0.00,,,0.00,459.000000,,2013-08-24 22:53:00,
2013-08-24 19:03:00,78.0,54.0,-100.00,NW,322,3.0,6.0,44,0.00,,,0.00,459.000000,,2013-08-24 23:03:00,
2013-08-24 19:43:00,73.0,57.0,-100.00,NW,323,1.0,6.0,57,0.00,,,0.00,241.000000,,2013-08-24 23:43:00,
2013-08-24 20:42:00,64.0,56.0,-100.00,SW,221,0.0,2.0,74,0.00,,,0.00,22.000000,,2013-08-25 00:42:00,
2013-08-24 20:52:00,64.0,56.0,-100.00,SW,221,0.0,2.0,74,0.00,,,0.00,22.000000,,2013-08-25 00:52:00,
2013-08-24 21:01:00,64.0,56.0,-100.00,SW,221,0.0,2.0,74,0.00,,,0.00,22.000000,,2013-08-25 01:01:00,
2013-08-24 21:43:00,59.0,54.0,-100.00,SSW,205,0.0,2.0,84,0.00,,,0.00,0.000000,,2013-08-25 01:43:00,
2013-08-24 21:52:00,59.0,54.0,-100.00,SSW,205,0.0,2.0,84,0.00,,,0.00,0.000000,,2013-08-25 01:52:00,
2013-08-24 22:02:00,59.0,54.0,-100.00,SSW,205,0.0,2.0,84,0.00,,,0.00,0.000000,,2013-08-25 02:02:00,
2013-08-24 22:42:00,56.0,52.0,-100.00,ESE,116,0.0,0.0,87,0.00,,,0.00,0.000000,,2013-08-25 02:42:00,
2013-08-24 22:52:00,56.0,52.0,-100.00,ESE,116,0.0,0.0,87,0.00,,,0.00,0.000000,,2013-08-25 02:52:00,
2013-08-24 23:02:00,56.0,52.0,-100.00,ESE,116,0.0,0.0,87,0.00,,,0.00,0.000000,,2013-08-25 03:02:00,
2013-08-24 23:44:00,55.0,53.0,-100.00,West,267,0.0,0.0,92,0.00,,,0.00,0.000000,,2013-08-25 03:44:00,
2013-08-24 23:54:00,55.0,53.0,-100.00,West,267,0.0,0.0,92,0.00,,,0.00,0.000000,,2013-08-25 03:54:00,